메인 페이지
METAR-TAF:

METAR-TAF

공항 :

진나 국제공항

카라치, 파키스탄

위도: 24-54N, 경도: 067-08E, 고도: 21m

현재 날씨관측

예보는 47분 전, 22:55시(UTC)에 발표되었습니다.
14kt
온도 25°C
습도 79%
기압 1011 hPa
시정: 6000m
고도 2000ft 상공 구름 많음

METAR: OPKC 312255Z 27014KT 6000 BKN020 25/21 Q1011 NOSIG

시각: 04:42 (23:42 UTC)

예보

예보는 2 시간 12분 전, 21:30시(UTC)에 발표되었습니다.
예보 대상 시간: 01일 00시부터 02일 06시까지 (UTC)
8kt, 순간 최대 풍속 18kt
시정: 6000m
일시적
01일 00시부터 01일 05시까지 (UTC)
10kt
시정: 4000m
연기
전환 중
01일 18시부터 01일 20시까지 (UTC)
북북서10kt
시정: 5000m
연기

TAF: OPKC 312130Z 0100/0206 27008G18KT 6000 NSC TEMPO 0100/0105 27010KT 4000 FU NSC BECMG 0118/0120 34010KT 5000 FU NSC

4,000개 이상의 공항 관측 자료 및 예보 (METAR 및 TAF 보고).

지도상에서 검색 가능한 기상관측소가 노란 점과 빨간 점으로 표시되어 있습니다.

기상관측소 명을 보려면 표시 위로 마우스를 이동하세요.

날씨 관측과 예보를 보려면 클릭하세요.

지도 변경 : 확대하려면 엑스 표시가 있는 녹색 버튼, 축소하려면 빼기 표시가 있는 녹색 버튼, 다음 페이지의 지도를 보려면 녹색 화살표를 클릭하세요.


METAR-TAF: